Time;durP1;ratioP1;P1;durP2;ratioP2;P2;SDS_P1;SDS_P2;PMS_P1;PMS_P2;Temp;Humidity;BMP_temperature;BMP_pressure;BME280_temperature;BME280_humidity;BME280_pressure;Samples;Min_cycle;Max_cycle;Signal;HPM_P1;HPM_P2
2023/02/14 00:01:07;;;;;;;35.50;17.60;;;;;;;4.94;81.62;101982.99;105350;1251;3013239;-56
2023/02/14 00:03:42;;;;;;;27.20;14.20;;;;;;;4.91;81.80;101971.46;107619;1251;93997;-62
2023/02/14 00:06:19;;;;;;;25.50;13.30;;;;;;;4.93;81.74;101969.15;107621;1251;81733;-62
2023/02/14 00:08:57;;;;;;;43.90;21.20;;;;;;;4.93;81.69;101973.25;107647;1251;82695;-61
2023/02/14 00:11:35;;;;;;;28.90;15.40;;;;;;;4.94;82.01;101980.54;107637;1251;98064;-61
2023/02/14 00:17:10;;;;;;;25.00;15.60;;;;;;;4.94;81.74;101987.64;107644;1255;94247;-61
2023/02/14 00:19:53;;;;;;;14.80;9.10;;;;;;;4.87;82.00;101988.92;107661;1251;78573;-58
2023/02/14 00:22:30;;;;;;;11.20;6.30;;;;;;;4.85;81.88;101989.42;107632;1251;83189;-58
2023/02/14 00:25:08;;;;;;;13.70;6.70;;;;;;;4.83;81.96;101993.30;107652;1251;98915;-54
2023/02/14 00:27:50;;;;;;;7.80;5.70;;;;;;;4.84;81.86;101997.91;107647;1251;88703;-58
2023/02/14 00:30:28;;;;;;;12.30;6.20;;;;;;;4.81;81.99;102007.40;107615;1251;95108;-61
2023/02/14 00:33:10;;;;;;;12.50;6.50;;;;;;;4.82;81.99;102011.38;107674;1251;81437;-61
2023/02/14 00:35:53;;;;;;;10.50;5.50;;;;;;;4.83;82.09;102010.08;107619;1251;80922;-58
2023/02/14 00:38:31;;;;;;;7.60;5.10;;;;;;;4.85;82.09;102007.30;107648;1251;95552;-57
2023/02/14 00:41:08;;;;;;;7.80;5.30;;;;;;;4.87;82.19;102005.34;107654;1255;88528;-53
2023/02/14 00:43:52;;;;;;;9.40;5.80;;;;;;;4.88;82.14;102010.28;107638;1251;94952;-58
2023/02/14 00:46:31;;;;;;;11.20;6.70;;;;;;;4.91;82.18;102011.48;107630;1251;79740;-59
2023/02/14 00:49:16;;;;;;;14.80;7.70;;;;;;;4.86;82.09;102014.45;107658;1251;81167;-60
2023/02/14 00:52:01;;;;;;;12.00;7.20;;;;;;;4.86;82.22;102012.39;107630;1251;99139;-59
2023/02/14 00:54:47;;;;;;;14.30;7.00;;;;;;;4.84;82.04;102015.55;107636;1251;88436;-61
2023/02/14 00:57:31;;;;;;;15.10;6.80;;;;;;;4.81;82.22;102007.41;107607;1251;95196;-61
2023/02/14 01:00:08;;;;;;;;;;;;;;;4.85;82.24;102010.33;107656;1251;80868;-53
2023/02/14 01:02:51;;;;;;;13.10;7.60;;;;;;;4.79;82.37;102009.84;107658;1251;82720;-54
2023/02/14 01:05:29;;;;;;;12.90;7.90;;;;;;;4.76;82.41;102011.69;107651;1251;98694;-62
2023/02/14 01:08:08;;;;;;;14.80;8.20;;;;;;;4.77;82.41;102013.20;107621;1251;88788;-62
2023/02/14 01:10:48;;;;;;;12.00;7.70;;;;;;;4.78;82.46;101999.61;107631;1251;95029;-58
2023/02/14 01:13:27;;;;;;;13.20;7.30;;;;;;;4.83;82.41;101998.52;107652;1251;80549;-54
2023/02/14 01:16:10;;;;;;;13.90;7.80;;;;;;;4.87;82.48;101996.01;107673;1251;83282;-48
2023/02/14 01:18:54;;;;;;;10.90;6.60;;;;;;;4.83;82.45;101999.20;107652;1251;99084;-62
2023/02/14 01:21:40;;;;;;;14.40;7.10;;;;;;;4.83;82.49;102005.44;107629;1255;88661;-62
2023/02/14 01:24:25;;;;;;;14.40;8.10;;;;;;;4.83;82.41;102002.95;107600;1251;94529;-55
2023/02/14 01:27:05;;;;;;;10.00;7.20;;;;;;;4.81;82.45;102000.77;107616;1251;81025;-56
2023/02/14 01:29:41;;;;;;;11.60;6.90;;;;;;;4.73;82.56;101999.05;107660;1251;82570;-61
2023/02/14 01:32:18;;;;;;;13.10;7.10;;;;;;;4.67;82.68;102001.98;107618;1251;99215;-61
2023/02/14 01:35:00;;;;;;;13.60;7.60;;;;;;;4.66;82.80;102012.60;107637;1251;88599;-61
2023/02/14 01:37:41;;;;;;;11.30;7.20;;;;;;;4.62;82.93;102013.55;107617;1251;96288;-62
2023/02/14 01:40:17;;;;;;;14.90;7.60;;;;;;;4.61;82.92;102008.83;107658;1251;80785;-57
2023/02/14 01:42:56;;;;;;;12.80;8.00;;;;;;;4.59;83.05;102008.68;107670;1251;81913;-60
2023/02/14 01:45:58;;;;;;;18.60;10.30;;;;;;;4.60;83.02;102010.57;107642;1251;99102;-55
2023/02/14 01:48:37;;;;;;;17.80;10.10;;;;;;;4.61;82.99;102005.63;107608;1251;89370;-55
2023/02/14 01:51:20;;;;;;;19.20;10.00;;;;;;;4.64;83.11;102005.02;107632;1251;93720;-57
2023/02/14 01:54:01;;;;;;;19.30;10.70;;;;;;;4.63;83.11;102002.47;107633;1251;81804;-61
2023/02/14 01:56:46;;;;;;;18.80;11.40;;;;;;;4.62;83.25;102003.41;107606;1251;81306;-61
2023/02/14 01:59:26;;;;;;;16.30;10.50;;;;;;;4.62;83.28;102005.89;107628;1251;98081;-61
2023/02/14 02:02:06;;;;;;;13.40;8.60;;;;;;;4.63;83.10;102007.63;107658;1251;88844;-65
2023/02/14 02:04:47;;;;;;;14.80;8.20;;;;;;;4.62;83.10;102001.27;107640;1251;94114;-58
2023/02/14 02:07:26;;;;;;;14.00;9.00;;;;;;;4.53;83.30;102003.05;107600;1251;80779;-58
2023/02/14 02:10:07;;;;;;;13.60;8.30;;;;;;;4.51;83.42;102006.77;107667;1251;82883;-60
2023/02/14 02:12:50;;;;;;;12.40;8.10;;;;;;;4.53;83.43;101998.23;107653;1251;97533;-56
2023/02/14 02:15:32;;;;;;;15.40;8.30;;;;;;;4.53;83.40;102002.46;107692;1251;88084;-61
2023/02/14 02:18:27;;;;;;;15.90;9.10;;;;;;;4.55;83.48;102002.70;107623;1251;93680;-62
2023/02/14 02:22:11;;;;;;;31.50;15.20;;;;;;;4.54;83.55;102006.91;107621;1251;79776;-59
2023/02/14 02:24:57;;;;;;;28.60;16.30;;;;;;;4.50;83.61;102015.95;107490;1251;81417;-61
2023/02/14 02:28:16;;;;;;;31.90;15.20;;;;;;;4.51;83.62;102017.79;107607;1251;100243;-57
2023/02/14 02:31:32;;;;;;;31.50;17.40;;;;;;;4.44;83.62;102020.81;107603;1251;88202;-60
2023/02/14 02:35:12;;;;;;;27.00;15.30;;;;;;;4.41;83.99;102024.39;107656;1251;94574;-61
2023/02/14 02:38:13;;;;;;;23.10;12.00;;;;;;;4.43;83.98;102020.03;107245;1256;79917;-63
2023/02/14 02:41:05;;;;;;;24.50;14.40;;;;;;;4.42;83.69;102023.80;107324;1256;83751;-62
2023/02/14 02:43:51;;;;;;;14.70;9.60;;;;;;;4.35;83.88;102027.92;107559;1254;98328;-58
2023/02/14 02:46:52;;;;;;;14.50;9.80;;;;;;;4.33;84.01;102035.69;107564;1253;90859;-59
2023/02/14 02:58:41;;;;;;;21.00;10.90;;;;;;;4.24;84.04;102044.56;107564;1253;98931;-60
2023/02/14 03:01:26;;;;;;;18.10;11.40;;;;;;;4.19;84.23;102043.81;107515;1252;88366;-61
2023/02/14 03:10:12;;;;;;;15.70;10.20;;;;;;;4.22;84.32;102045.23;107503;1253;82956;-58
2023/02/14 03:13:44;;;;;;;21.50;11.90;;;;;;;4.24;84.16;102044.20;107564;1256;98976;-57
2023/02/14 03:16:53;;;;;;;18.30;11.50;;;;;;;4.16;84.26;102049.19;107346;1253;88273;-61
2023/02/14 03:22:52;;;;;;;21.30;12.70;;;;;;;4.21;84.46;102046.77;107551;1253;79892;-58
2023/02/14 03:25:43;;;;;;;15.60;10.60;;;;;;;4.15;84.55;102046.80;107598;1252;82304;-60
2023/02/14 03:28:39;;;;;;;21.60;12.10;;;;;;;4.05;84.41;102048.54;107566;1252;98780;-58
2023/02/14 03:31:27;;;;;;;17.70;11.30;;;;;;;4.01;84.39;102049.77;107551;1253;87880;-57
2023/02/14 03:34:11;;;;;;;23.80;12.80;;;;;;;4.01;84.46;102057.98;107564;1252;94681;-58
2023/02/14 03:36:53;;;;;;;19.60;11.50;;;;;;;4.01;84.54;102057.25;107589;1251;80592;-59
2023/02/14 03:39:43;;;;;;;18.30;11.50;;;;;;;3.94;84.66;102054.36;107656;1251;83000;-58
2023/02/14 03:42:25;;;;;;;15.50;10.60;;;;;;;3.93;84.77;102056.71;107648;1251;98522;-58
2023/02/14 03:45:04;;;;;;;15.70;9.90;;;;;;;3.92;84.81;102056.42;107618;1251;88554;-59
2023/02/14 03:47:44;;;;;;;18.50;11.10;;;;;;;3.94;85.02;102055.27;107638;1255;94930;-58
2023/02/14 03:50:22;;;;;;;17.10;10.70;;;;;;;3.96;84.94;102058.48;107642;1251;80318;-57
2023/02/14 03:53:02;;;;;;;20.10;12.00;;;;;;;3.96;84.89;102061.33;107642;1251;82558;-56
2023/02/14 03:55:49;;;;;;;23.60;13.40;;;;;;;3.92;85.21;102060.33;107646;1251;98686;-58
2023/02/14 03:58:36;;;;;;;20.30;11.80;;;;;;;3.99;85.14;102056.47;107683;1251;88097;-63
2023/02/14 04:01:20;;;;;;;18.10;11.90;;;;;;;4.02;85.11;102054.33;107663;1251;94085;-57
2023/02/14 04:04:04;;;;;;;13.60;9.00;;;;;;;4.04;85.21;102056.81;107572;1253;82589;-58
2023/02/14 04:06:48;;;;;;;16.20;9.20;;;;;;;4.07;84.98;102053.05;107646;1251;81980;-58
2023/02/14 04:09:33;;;;;;;14.80;9.20;;;;;;;4.01;85.06;102052.42;107608;1251;99230;-61
2023/02/14 04:12:11;;;;;;;14.20;9.50;;;;;;;4.02;85.09;102050.91;107622;1251;87949;-57
2023/02/14 04:14:55;;;;;;;15.50;9.30;;;;;;;4.01;85.24;102045.27;107595;1251;94453;-62
2023/02/14 04:20:37;;;;;;;15.40;10.20;;;;;;;3.98;85.22;102054.41;107669;1251;83303;-58
2023/02/14 04:23:22;;;;;;;13.90;10.20;;;;;;;3.90;85.36;102048.70;107622;1251;97743;-60
2023/02/14 04:26:03;;;;;;;17.90;11.50;;;;;;;3.91;85.20;102048.14;107682;1251;89983;-62
2023/02/14 04:28:51;;;;;;;22.40;13.30;;;;;;;3.97;85.14;102052.65;107640;1251;93869;-53
2023/02/14 04:31:33;;;;;;;19.20;11.10;;;;;;;3.95;85.16;102051.77;107618;1251;80147;-58
2023/02/14 04:34:19;;;;;;;17.50;11.40;;;;;;;3.97;85.40;102057.13;107654;1251;82606;-61
2023/02/14 04:37:01;;;;;;;17.30;10.90;;;;;;;3.91;85.56;102061.68;107617;1251;98763;-61
2023/02/14 04:39:46;;;;;;;20.60;12.80;;;;;;;3.98;85.51;102063.70;107621;1251;89497;-51
2023/02/14 04:42:33;;;;;;;16.50;10.90;;;;;;;3.98;85.32;102064.90;107608;1251;95308;-57
2023/02/14 04:45:13;;;;;;;21.30;12.70;;;;;;;3.97;85.35;102076.92;107606;1251;81013;-62
2023/02/14 04:47:55;;;;;;;20.10;12.10;;;;;;;3.97;85.55;102069.84;107639;1253;82141;-61
2023/02/14 04:50:35;;;;;;;24.40;14.00;;;;;;;3.98;85.56;102069.52;107602;1251;96632;-60
2023/02/14 04:53:18;;;;;;;21.80;12.10;;;;;;;3.97;85.57;102078.73;107259;1251;473232;-60
2023/02/14 04:56:01;;;;;;;26.00;14.50;;;;;;;4.02;85.48;102085.86;107622;1251;95887;-57
2023/02/14 04:58:46;;;;;;;21.80;13.80;;;;;;;4.04;85.41;102084.13;107660;1251;81106;-58
2023/02/14 05:01:30;;;;;;;21.10;13.00;;;;;;;4.02;85.54;102088.16;107625;1251;82679;-57
2023/02/14 05:04:20;;;;;;;18.20;12.60;;;;;;;3.97;85.70;102085.27;107617;1251;98540;-57
2023/02/14 05:06:59;;;;;;;19.40;11.70;;;;;;;3.99;85.65;102086.96;107644;1255;89325;-59
2023/02/14 05:09:36;;;;;;;19.90;11.70;;;;;;;4.00;85.80;102086.90;107620;1251;94316;-60
2023/02/14 05:12:20;;;;;;;17.30;11.80;;;;;;;4.00;85.73;102091.33;107641;1251;79012;-59
2023/02/14 05:15:04;;;;;;;21.30;11.70;;;;;;;4.00;85.65;102096.33;107670;1251;81748;-58
2023/02/14 05:17:41;;;;;;;22.50;12.60;;;;;;;3.98;85.58;102096.48;107631;1251;98640;-56
2023/02/14 05:20:23;;;;;;;24.10;13.10;;;;;;;3.96;85.79;102101.59;107648;1251;89334;-61
2023/02/14 05:23:12;;;;;;;22.80;12.90;;;;;;;3.96;85.61;102099.81;107598;1251;95932;-61
2023/02/14 05:26:00;;;;;;;22.50;11.70;;;;;;;3.92;85.77;102100.97;107629;1251;80045;-52
2023/02/14 05:28:46;;;;;;;22.00;13.20;;;;;;;3.88;85.77;102107.17;107676;1251;81836;-58
2023/02/14 05:31:30;;;;;;;24.60;11.90;;;;;;;3.83;85.98;102108.76;107620;1251;98828;-59
2023/02/14 05:34:08;;;;;;;21.90;11.60;;;;;;;3.85;85.85;102109.33;107645;1251;88664;-61
2023/02/14 05:36:47;;;;;;;21.30;12.60;;;;;;;3.86;85.86;102110.30;107651;1252;95507;-56
2023/02/14 05:39:26;;;;;;;18.30;10.80;;;;;;;3.89;85.93;102119.02;107671;1251;81201;-59
2023/02/14 05:42:03;;;;;;;19.50;12.20;;;;;;;3.91;85.87;102120.30;107602;1251;83157;-58
2023/02/14 05:44:46;;;;;;;17.50;11.70;;;;;;;3.89;85.92;102107.77;107649;1253;96940;-58
2023/02/14 05:47:31;;;;;;;19.40;12.00;;;;;;;3.85;86.11;102109.64;107618;1251;89734;-62
2023/02/14 05:50:10;;;;;;;18.20;10.90;;;;;;;3.93;85.88;102116.05;107676;1252;95225;-56
2023/02/14 05:52:53;;;;;;;18.80;11.90;;;;;;;3.92;86.04;102113.14;107637;1253;81977;-56
2023/02/14 05:55:36;;;;;;;17.10;12.00;;;;;;;3.95;86.22;102111.11;107658;1251;82621;-58
2023/02/14 05:58:11;;;;;;;;;;;;;;;3.95;85.99;102115.42;107638;1251;97783;-60
2023/02/14 06:00:51;;;;;;;98.20;43.90;;;;;;;3.92;86.18;102121.52;107637;1251;89561;-56
2023/02/14 06:03:26;;;;;;;46.70;26.70;;;;;;;3.91;86.26;102122.25;107598;1251;93766;-60
2023/02/14 06:06:00;;;;;;;;;;;;;;;3.89;86.33;102126.30;107607;1251;79397;-59
2023/02/14 06:08:41;;;;;;;44.30;25.80;;;;;;;3.90;86.31;102134.09;107588;1251;83333;-61
2023/02/14 06:11:18;;;;;;;33.70;22.20;;;;;;;3.91;86.24;102138.67;107650;1253;97214;-61
2023/02/14 06:14:00;;;;;;;24.60;16.10;;;;;;;3.89;86.48;102138.08;107634;1251;88407;-53
2023/02/14 06:16:39;;;;;;;22.80;14.10;;;;;;;3.86;86.19;102140.45;107648;1251;92031;-59
2023/02/14 06:19:13;;;;;;;20.50;14.80;;;;;;;3.84;86.29;102146.44;107600;1251;81372;-64
2023/02/14 06:21:57;;;;;;;24.90;15.30;;;;;;;3.84;86.33;102137.16;107642;1251;82391;-62
2023/02/14 06:24:35;;;;;;;19.70;13.20;;;;;;;3.83;86.25;102143.64;107647;1251;98813;-55
2023/02/14 06:27:17;;;;;;;22.00;13.50;;;;;;;3.78;86.34;102146.51;107641;1251;89251;-55
2023/02/14 06:30:02;;;;;;;20.20;12.80;;;;;;;3.83;86.30;102150.63;107604;1251;94991;-60
2023/02/14 06:32:44;;;;;;;22.60;14.60;;;;;;;3.82;86.50;102139.79;107645;1251;80949;-62
2023/02/14 06:35:21;;;;;;;20.20;13.80;;;;;;;3.85;86.68;102147.42;107613;1251;83402;-59
2023/02/14 06:38:00;;;;;;;22.80;15.10;;;;;;;3.87;86.72;102154.63;107643;1251;97925;-59
2023/02/14 06:40:42;;;;;;;22.10;14.70;;;;;;;3.84;86.62;102153.03;107619;1252;86188;-60
2023/02/14 06:43:24;;;;;;;22.90;14.00;;;;;;;3.89;86.40;102151.66;107656;1251;93554;-60
2023/02/14 06:46:05;;;;;;;24.50;15.20;;;;;;;3.91;86.61;102154.02;107615;1251;80433;-60
2023/02/14 06:48:47;;;;;;;31.30;15.80;;;;;;;3.94;86.72;102156.96;107660;1251;81831;-54
2023/02/14 06:51:28;;;;;;;27.60;16.40;;;;;;;3.97;86.65;102152.88;107605;1253;98212;-57
2023/02/14 06:54:02;;;;;;;34.50;17.30;;;;;;;4.02;86.54;102155.20;107618;1251;88345;-62
2023/02/14 06:56:45;;;;;;;28.20;16.10;;;;;;;4.04;86.46;102151.69;107602;1251;93784;-62
2023/02/14 06:59:28;;;;;;;26.10;15.20;;;;;;;4.04;86.58;102159.00;107636;1251;82159;-62
2023/02/14 07:02:05;;;;;;;35.20;19.40;;;;;;;4.06;86.66;102155.06;107623;1251;82166;-63
2023/02/14 07:04:45;;;;;;;35.40;20.70;;;;;;;4.08;86.59;102154.80;107629;1251;97070;-53
2023/02/14 07:07:21;;;;;;;29.60;18.40;;;;;;;4.11;86.36;102155.30;107652;1253;88304;-57
2023/02/14 07:10:01;;;;;;;24.40;16.30;;;;;;;4.11;86.47;102155.98;107635;1251;94256;-62
2023/02/14 07:12:46;;;;;;;27.90;15.70;;;;;;;4.09;86.57;102157.90;107600;1251;79501;-62
2023/02/14 07:15:27;;;;;;;21.20;13.90;;;;;;;4.07;86.47;102155.02;107652;1253;80434;-62
2023/02/14 07:18:14;;;;;;;25.20;15.10;;;;;;;4.12;86.41;102152.70;107632;1251;99166;-61
2023/02/14 07:20:51;;;;;;;25.50;15.80;;;;;;;4.12;86.52;102155.23;107627;1251;88171;-60
2023/02/14 07:23:30;;;;;;;24.90;15.20;;;;;;;4.10;86.30;102158.71;107597;1251;94819;-61
2023/02/14 07:26:10;;;;;;;27.90;15.50;;;;;;;4.06;86.51;102162.02;107652;1251;80841;-61
2023/02/14 07:28:53;;;;;;;24.90;15.80;;;;;;;4.06;86.50;102165.23;107635;1255;82197;-59
2023/02/14 07:31:37;;;;;;;21.10;14.20;;;;;;;4.11;86.55;102168.85;107597;1255;97711;-61
2023/02/14 07:34:17;;;;;;;;;;;;;;;4.16;86.56;102163.85;107643;1251;89116;-61
2023/02/14 07:37:05;;;;;;;20.80;13.00;;;;;;;4.23;86.47;102164.29;107580;1255;95369;-61
2023/02/14 07:39:46;;;;;;;21.90;11.80;;;;;;;4.23;86.39;102171.21;107626;1253;79478;-59
2023/02/14 07:42:29;;;;;;;21.10;15.60;;;;;;;4.24;86.44;102174.76;107613;1252;81883;-64
2023/02/14 07:45:07;;;;;;;19.80;12.90;;;;;;;4.27;86.60;102172.05;107580;1253;99038;-61
2023/02/14 07:47:46;;;;;;;22.40;15.00;;;;;;;4.30;86.47;102175.38;107649;1252;87172;-62
2023/02/14 07:50:23;;;;;;;19.80;12.00;;;;;;;4.32;86.45;102175.42;107638;1251;93491;-52
2023/02/14 07:53:07;;;;;;;24.40;15.20;;;;;;;4.35;86.41;102177.38;107629;1253;82005;-59
2023/02/14 07:55:51;;;;;;;25.90;14.80;;;;;;;4.38;86.41;102180.52;107625;1252;82944;-60
2023/02/14 07:58:31;;;;;;;17.00;11.60;;;;;;;4.45;86.37;102183.05;107590;1251;99730;-62
2023/02/14 08:01:16;;;;;;;21.60;13.00;;;;;;;4.52;86.42;102186.54;107602;1255;89186;-60
2023/02/14 08:04:01;;;;;;;16.90;11.60;;;;;;;4.58;86.22;102186.27;107618;1253;94837;-58
2023/02/14 08:06:36;;;;;;;16.60;10.60;;;;;;;4.65;86.32;102190.05;107558;1251;80581;-60
2023/02/14 08:09:23;;;;;;;19.40;12.10;;;;;;;4.74;86.03;102195.23;107641;1253;81510;-61
2023/02/14 08:16:03;;;;;;;22.90;14.40;;;;;;;4.70;86.26;102209.11;107563;1253;88803;-60
2023/02/14 08:18:08;;;;;;;19.30;12.50;;;;;;;4.70;86.20;102218.02;105349;1253;3013590;-61
2023/02/14 08:20:52;;;;;;;20.20;12.50;;;;;;;4.72;86.33;102217.58;107629;1253;80157;-61
2023/02/14 08:23:39;;;;;;;23.20;14.90;;;;;;;4.75;85.91;102218.75;107616;1251;82344;-57
2023/02/14 08:26:23;;;;;;;22.50;13.90;;;;;;;4.74;85.99;102226.51;107595;1251;98508;-59
2023/02/14 08:29:05;;;;;;;21.50;13.80;;;;;;;4.79;85.72;102223.31;107615;1253;89300;-58
2023/02/14 08:31:47;;;;;;;22.70;14.60;;;;;;;4.81;85.66;102222.65;107593;1253;95253;-59
2023/02/14 08:34:27;;;;;;;25.20;16.10;;;;;;;4.86;85.68;102224.06;107630;1252;80578;-58
2023/02/14 08:37:09;;;;;;;23.50;15.00;;;;;;;4.86;85.60;102225.30;107596;1253;82017;-54
2023/02/14 08:39:49;;;;;;;22.80;14.40;;;;;;;4.91;85.67;102222.64;107582;1251;97604;-61
2023/02/14 08:42:29;;;;;;;23.30;16.50;;;;;;;4.94;85.46;102221.52;107632;1253;89596;-62
2023/02/14 08:45:09;;;;;;;22.20;14.60;;;;;;;4.97;85.57;102221.65;107661;1253;95356;-52
2023/02/14 08:47:46;;;;;;;17.80;13.50;;;;;;;5.03;85.45;102223.38;107605;1252;79290;-52
2023/02/14 08:50:24;;;;;;;23.00;15.20;;;;;;;5.02;85.67;102216.29;107621;1251;82121;-61
2023/02/14 08:53:06;;;;;;;24.80;14.10;;;;;;;5.03;85.44;102221.96;107609;1252;97475;-61
2023/02/14 08:55:51;;;;;;;18.20;11.70;;;;;;;5.06;85.36;102222.25;107626;1253;89250;-59
2023/02/14 08:58:34;;;;;;;16.90;12.00;;;;;;;5.05;85.46;102220.87;107647;1255;95276;-55
2023/02/14 09:01:15;;;;;;;17.40;11.30;;;;;;;5.14;85.30;102220.05;107619;1251;77980;-59
2023/02/14 09:04:00;;;;;;;16.70;11.40;;;;;;;5.19;85.37;102224.14;107613;1253;79786;-58
2023/02/14 09:06:39;;;;;;;17.50;10.50;;;;;;;5.19;85.37;102228.96;107576;1253;98697;-58
2023/02/14 09:09:19;;;;;;;20.60;12.10;;;;;;;5.19;85.09;102231.33;107628;1253;89572;-59
2023/02/14 09:12:05;;;;;;;17.60;11.80;;;;;;;5.09;85.10;102223.81;107606;1251;94235;-54
2023/02/14 09:14:44;;;;;;;16.30;12.00;;;;;;;5.13;85.25;102222.83;107637;1253;80103;-58
2023/02/14 09:17:27;;;;;;;18.50;12.50;;;;;;;5.20;85.25;102230.70;107611;1253;80825;-59
2023/02/14 09:20:07;;;;;;;17.80;13.20;;;;;;;5.26;85.11;102235.08;107553;1256;97225;-61
2023/02/14 09:22:44;;;;;;;19.10;12.60;;;;;;;5.29;85.09;102235.20;107608;1253;88678;-61
2023/02/14 09:25:35;;;;;;;18.00;13.10;;;;;;;5.27;85.07;102236.94;107601;1251;95745;-59
2023/02/14 09:28:27;;;;;;;19.40;12.20;;;;;;;5.24;85.18;102235.39;107591;1252;79543;-61
2023/02/14 09:31:11;;;;;;;;;;;;;;;5.28;84.96;102229.24;107620;1253;82082;-61
2023/02/14 09:36:51;;;;;;;27.50;18.00;;;;;;;5.40;84.85;102224.95;107624;1253;87752;-58
2023/02/14 09:39:33;;;;;;;29.50;19.20;;;;;;;5.53;84.94;102226.36;107589;1253;95696;-61
2023/02/14 09:42:35;;;;;;;26.60;17.30;;;;;;;5.58;84.81;102226.69;107571;1253;78554;-61
2023/02/14 09:45:14;;;;;;;24.80;17.20;;;;;;;5.52;84.74;102229.44;107577;1253;83143;-59
2023/02/14 09:47:57;;;;;;;24.60;17.40;;;;;;;5.58;84.66;102231.18;107629;1255;97404;-59
2023/02/14 09:50:39;;;;;;;28.50;20.40;;;;;;;5.67;84.54;102229.54;107579;1251;88546;-58
2023/02/14 09:53:26;;;;;;;24.60;15.80;;;;;;;5.72;84.55;102234.54;107591;1253;95551;-60
2023/02/14 09:56:09;;;;;;;26.90;16.00;;;;;;;5.77;84.22;102234.52;107613;1252;80584;-61
2023/02/14 09:58:53;;;;;;;23.80;15.70;;;;;;;5.73;83.97;102238.95;107611;1254;82788;-58
2023/02/14 10:01:36;;;;;;;21.40;13.30;;;;;;;5.69;84.02;102236.02;107634;1253;97665;-60
2023/02/14 10:04:35;;;;;;;20.80;13.90;;;;;;;5.68;84.06;102239.73;107621;1251;88772;-58
2023/02/14 10:07:31;;;;;;;36.60;21.00;;;;;;;5.73;83.85;102243.59;107566;1251;95459;-59
2023/02/14 10:10:19;;;;;;;29.40;17.00;;;;;;;5.72;83.79;102241.52;107581;1251;78062;-60
2023/02/14 10:13:02;;;;;;;27.10;16.00;;;;;;;5.80;83.90;102240.55;107612;1253;82504;-61
2023/02/14 10:15:41;;;;;;;25.00;16.10;;;;;;;5.79;83.88;102237.77;107608;1255;96337;-59
2023/02/14 10:18:22;;;;;;;28.70;16.20;;;;;;;5.79;83.72;102239.20;107636;1253;87885;-61
2023/02/14 10:21:04;;;;;;;62.70;28.60;;;;;;;5.68;83.57;102238.58;107603;1253;92116;-57
2023/02/14 10:23:46;;;;;;;30.80;18.30;;;;;;;5.62;83.82;102233.92;107600;1253;81150;-62
2023/02/14 10:26:34;;;;;;;25.10;14.80;;;;;;;5.77;83.89;102228.84;107606;1251;82825;-61
2023/02/14 10:29:17;;;;;;;30.40;17.10;;;;;;;5.96;83.40;102227.20;107633;1253;99132;-62
2023/02/14 10:32:03;;;;;;;24.00;16.90;;;;;;;6.00;83.44;102230.56;107615;1255;88520;-51
2023/02/14 10:34:49;;;;;;;18.90;13.40;;;;;;;6.03;83.26;102235.45;107640;1251;95112;-58
2023/02/14 10:37:53;;;;;;;24.00;14.00;;;;;;;5.97;83.19;102234.35;107587;1253;78478;-59
2023/02/14 10:41:03;;;;;;;23.90;15.10;;;;;;;5.89;83.36;102234.59;107601;1253;81216;-62
2023/02/14 10:43:51;;;;;;;24.40;14.40;;;;;;;5.83;83.05;102236.23;107622;1251;98521;-58
2023/02/14 10:46:39;;;;;;;20.20;13.70;;;;;;;5.89;83.24;102234.04;107581;1251;88284;-58
2023/02/14 10:49:33;;;;;;;22.70;13.00;;;;;;;5.97;83.15;102234.29;107647;1255;95778;-59
2023/02/14 10:52:18;;;;;;;17.60;12.90;;;;;;;6.17;82.98;102227.41;107585;1253;80275;-52
2023/02/14 10:55:12;;;;;;;21.30;13.60;;;;;;;6.23;82.86;102228.20;107618;1251;81000;-58
2023/02/14 10:57:51;;;;;;;20.70;12.80;;;;;;;6.25;82.89;102226.59;107563;1252;98410;-60
2023/02/14 11:00:31;;;;;;;21.40;14.50;;;;;;;6.16;83.01;102227.54;107601;1253;89107;-61
2023/02/14 11:03:13;;;;;;;20.70;14.50;;;;;;;6.21;82.71;102229.11;107594;1253;95346;-53
2023/02/14 11:05:56;;;;;;;22.70;14.70;;;;;;;6.23;82.65;102227.88;107514;1252;80274;-61
2023/02/14 11:08:40;;;;;;;22.80;13.90;;;;;;;6.15;82.46;102231.14;107503;1253;82118;-58
2023/02/14 11:11:28;;;;;;;21.60;13.40;;;;;;;6.08;82.53;102227.79;107541;1253;97361;-52
2023/02/14 11:14:21;;;;;;;17.40;12.80;;;;;;;6.06;82.47;102225.95;107515;1257;87587;-60
2023/02/14 11:17:26;;;;;;;24.30;14.10;;;;;;;6.05;82.49;102222.45;107488;1253;94230;-61
2023/02/14 11:20:30;;;;;;;26.50;15.30;;;;;;;6.11;82.50;102224.10;107509;1253;78817;-57
2023/02/14 11:23:21;;;;;;;22.50;13.60;;;;;;;6.23;82.38;102221.98;107524;1256;83131;-60
2023/02/14 11:26:03;;;;;;;18.40;13.00;;;;;;;6.35;82.26;102219.08;107514;1256;97768;-58
2023/02/14 11:28:56;;;;;;;20.00;13.40;;;;;;;6.35;82.13;102218.89;107493;1252;88309;-61
2023/02/14 11:31:36;;;;;;;20.00;13.60;;;;;;;6.32;82.01;102213.91;107500;1252;94666;-61
2023/02/14 11:34:48;;;;;;;22.30;13.70;;;;;;;6.35;82.03;102213.30;107532;1256;79649;-59
2023/02/14 11:37:32;;;;;;;18.70;13.40;;;;;;;6.47;81.98;102207.92;107486;1253;82718;-62
2023/02/14 11:40:24;;;;;;;21.80;14.10;;;;;;;6.49;81.74;102202.50;107544;1252;99029;-61
2023/02/14 11:43:01;;;;;;;17.10;12.30;;;;;;;6.50;81.82;102199.40;107530;1253;87827;-61
2023/02/14 11:45:39;;;;;;;17.90;13.30;;;;;;;6.41;81.85;102196.35;107538;1256;95264;-57
2023/02/14 11:48:21;;;;;;;19.20;13.30;;;;;;;6.53;81.94;102199.00;107550;1253;80292;-60
2023/02/14 11:51:05;;;;;;;18.80;12.50;;;;;;;6.60;81.74;102202.78;107540;1252;82428;-63
2023/02/14 11:53:51;;;;;;;17.80;13.20;;;;;;;6.64;81.65;102199.25;107505;1253;98863;-61
2023/02/14 11:56:47;;;;;;;17.60;12.60;;;;;;;6.76;81.63;102199.22;107514;1253;89042;-61
2023/02/14 11:59:37;;;;;;;16.60;12.50;;;;;;;6.77;81.53;102199.77;107509;1254;95439;-62
2023/02/14 12:02:31;;;;;;;18.00;13.00;;;;;;;6.74;81.37;102195.97;107510;1253;81840;-62
2023/02/14 12:05:20;;;;;;;19.00;13.10;;;;;;;6.75;81.41;102198.70;107540;1257;82864;-57
2023/02/14 12:08:01;;;;;;;18.60;12.70;;;;;;;6.74;81.60;102191.83;107487;1253;98294;-58
2023/02/14 12:10:40;;;;;;;21.20;14.30;;;;;;;6.82;81.40;102191.53;107496;1253;87291;-60
2023/02/14 12:13:29;;;;;;;18.90;13.40;;;;;;;6.92;81.31;102192.14;107491;1258;95597;-56
2023/02/14 12:16:19;;;;;;;18.20;12.60;;;;;;;7.04;81.15;102191.70;107510;1253;78401;-58
2023/02/14 12:19:13;;;;;;;16.60;12.40;;;;;;;7.01;81.00;102191.41;107527;1254;82128;-59
2023/02/14 12:22:00;;;;;;;18.20;12.10;;;;;;;6.91;81.00;102191.00;107493;1253;98921;-58
2023/02/14 12:24:43;;;;;;;19.70;12.50;;;;;;;6.92;80.77;102187.89;107533;1252;86809;-62
2023/02/14 12:27:32;;;;;;;22.90;14.70;;;;;;;6.91;80.90;102187.80;107466;1253;94214;-62
2023/02/14 12:30:15;;;;;;;26.10;14.40;;;;;;;6.90;80.90;102186.09;107487;1252;83129;-62
2023/02/14 12:32:53;;;;;;;19.90;13.40;;;;;;;6.98;81.00;102186.80;107495;1253;82278;-61
2023/02/14 12:35:49;;;;;;;16.90;12.10;;;;;;;6.98;80.97;102190.77;107499;1256;97312;-63
2023/02/14 12:38:42;;;;;;;16.70;12.40;;;;;;;7.05;80.77;102185.91;107515;1253;89209;-59
2023/02/14 12:41:40;;;;;;;18.80;13.80;;;;;;;7.12;80.46;102182.32;107498;1254;94934;-60
2023/02/14 12:44:30;;;;;;;16.50;13.20;;;;;;;7.14;80.35;102180.30;107482;1255;80307;-60
2023/02/14 12:47:22;;;;;;;18.40;13.20;;;;;;;7.17;80.43;102177.40;107544;1253;82273;-61
2023/02/14 12:50:34;;;;;;;16.80;12.10;;;;;;;7.09;80.37;102173.23;107566;1254;98189;-62
2023/02/14 12:53:45;;;;;;;16.90;13.00;;;;;;;7.02;80.12;102175.73;107046;1253;671245;-61
2023/02/14 12:56:35;;;;;;;18.30;12.80;;;;;;;6.94;80.21;102170.14;107533;1253;95257;-62
2023/02/14 12:59:31;;;;;;;19.50;13.10;;;;;;;6.86;80.00;102168.09;107564;1257;82186;-58
2023/02/14 13:02:47;;;;;;;18.90;12.50;;;;;;;6.82;80.18;102172.61;107489;1252;80499;-58